Time;durP1;ratioP1;P1;durP2;ratioP2;P2;SDS_P1;SDS_P2;PMS_P1;PMS_P2;Temp;Humidity;BMP_temperature;BMP_pressure;BME280_temperature;BME280_humidity;BME280_pressure;Samples;Min_cycle;Max_cycle;Signal;HPM_P1;HPM_P2
2023/08/15 00:00:11;;;;;;;3.33;2.15;;;23.00;99.90;;;;;;6241028;23;20043;-68
2023/08/15 00:02:57;;;;;;;3.72;2.38;;;22.90;99.90;;;;;;6219971;23;20414;-69
2023/08/15 00:05:43;;;;;;;9.48;2.70;;;22.80;99.90;;;;;;6241877;23;20099;-69
2023/08/15 00:08:29;;;;;;;5.43;2.60;;;22.80;99.90;;;;;;6217867;23;20016;-70
2023/08/15 00:11:15;;;;;;;4.28;2.50;;;22.70;99.90;;;;;;6239819;23;20004;-69
2023/08/15 00:14:01;;;;;;;6.05;2.72;;;22.60;99.90;;;;;;6241553;23;20012;-70
2023/08/15 00:16:47;;;;;;;6.90;2.42;;;22.60;99.90;;;;;;6243071;23;20350;-70
2023/08/15 00:19:32;;;;;;;4.97;2.70;;;22.70;99.90;;;;;;6239934;23;20008;-70
2023/08/15 00:22:18;;;;;;;9.57;3.10;;;22.60;99.90;;;;;;6242173;23;20020;-79
2023/08/15 00:25:04;;;;;;;3.90;2.88;;;22.70;99.90;;;;;;6241745;23;20069;-78
2023/08/15 00:27:50;;;;;;;4.70;2.20;;;22.70;99.90;;;;;;6242453;23;20008;-79
2023/08/15 00:30:36;;;;;;;6.22;3.40;;;22.60;99.90;;;;;;6242492;23;20034;-79
2023/08/15 00:33:22;;;;;;;4.13;2.83;;;22.60;99.90;;;;;;6241312;23;20042;-77
2023/08/15 00:36:08;;;;;;;4.72;3.03;;;22.60;99.90;;;;;;6242354;23;20395;-78
2023/08/15 00:38:54;;;;;;;9.82;3.70;;;22.60;99.90;;;;;;6241454;23;20016;-79
2023/08/15 00:41:40;;;;;;;5.25;2.85;;;22.60;99.90;;;;;;6241292;23;20027;-79
2023/08/15 00:44:26;;;;;;;4.57;2.47;;;22.60;99.90;;;;;;6239931;23;20145;-79
2023/08/15 00:47:14;;;;;;;5.03;2.05;;;22.60;99.90;;;;;;6242185;23;20342;-79
2023/08/15 00:50:01;;;;;;;6.70;2.45;;;22.60;99.90;;;;;;6239363;23;20009;-80
2023/08/15 00:52:48;;;;;;;3.65;2.28;;;22.50;99.90;;;;;;6242111;23;20095;-80
2023/08/15 00:55:35;;;;;;;3.63;2.10;;;22.60;99.90;;;;;;6239459;23;20046;-78
2023/08/15 00:58:21;;;;;;;2.63;1.80;;;22.50;99.90;;;;;;6242058;23;20031;-78
2023/08/15 01:01:14;;;;;;;5.07;2.10;;;22.50;99.90;;;;;;6240359;23;20012;-76
2023/08/15 01:04:01;;;;;;;3.25;2.03;;;22.50;99.90;;;;;;6240112;23;20020;-76
2023/08/15 01:06:48;;;;;;;3.40;1.90;;;22.50;99.90;;;;;;6239848;23;20012;-76
2023/08/15 01:09:35;;;;;;;6.15;2.30;;;22.50;99.90;;;;;;6239090;23;20012;-76
2023/08/15 01:12:33;;;;;;;2.83;2.05;;;22.40;99.90;;;;;;6241821;23;20051;-76
2023/08/15 01:15:25;;;;;;;2.47;1.63;;;22.30;99.90;;;;;;6240231;23;20058;-76
2023/08/15 01:18:18;;;;;;;5.07;1.73;;;22.40;99.90;;;;;;6239566;23;20040;-76
2023/08/15 01:21:05;;;;;;;2.60;1.67;;;22.40;99.90;;;;;;6239989;23;20008;-76
2023/08/15 01:23:53;;;;;;;2.03;1.48;;;22.30;99.90;;;;;;6218842;23;20286;-76
2023/08/15 01:26:38;;;;;;;2.30;1.50;;;22.30;99.90;;;;;;6240334;23;20350;-76
2023/08/15 01:29:24;;;;;;;2.28;1.60;;;22.20;99.90;;;;;;6240979;23;20012;-75
2023/08/15 01:32:23;;;;;;;2.17;1.42;;;22.20;99.90;;;;;;6241132;23;20000;-76
2023/08/15 01:35:16;;;;;;;2.35;1.50;;;22.20;99.90;;;;;;6239584;23;20346;-76
2023/08/15 01:38:21;;;;;;;2.63;1.73;;;22.20;99.90;;;;;;6238901;23;20008;-76
2023/08/15 01:41:10;;;;;;;3.05;1.67;;;22.20;99.90;;;;;;6238782;23;20012;-75
2023/08/15 01:43:56;;;;;;;2.25;1.40;;;22.10;99.90;;;;;;6239441;23;20012;-75
2023/08/15 01:46:46;;;;;;;1.98;1.40;;;22.20;99.90;;;;;;6241959;23;20387;-76
2023/08/15 01:49:32;;;;;;;4.68;2.25;;;22.10;99.90;;;;;;6239045;23;20090;-75
2023/08/15 01:52:18;;;;;;;2.90;1.52;;;22.10;99.90;;;;;;6241099;23;20004;-75
2023/08/15 01:55:04;;;;;;;2.55;1.70;;;22.10;99.90;;;;;;6240081;23;20476;-74
2023/08/15 01:57:50;;;;;;;3.88;1.85;;;22.10;99.90;;;;;;6239663;23;20370;-75
2023/08/15 02:00:36;;;;;;;4.22;1.50;;;22.10;99.90;;;;;;6241887;23;20008;-75
2023/08/15 02:03:22;;;;;;;4.22;1.80;;;22.10;99.90;;;;;;6240690;23;20042;-70
2023/08/15 02:06:08;;;;;;;2.55;1.60;;;22.10;99.90;;;;;;6240707;23;20009;-70
2023/08/15 02:08:54;;;;;;;2.92;1.60;;;22.10;99.90;;;;;;6240064;23;20016;-70
2023/08/15 02:11:40;;;;;;;3.92;1.90;;;22.10;99.90;;;;;;6241448;23;20066;-71
2023/08/15 02:14:26;;;;;;;2.75;1.90;;;22.10;99.90;;;;;;6240230;23;20048;-70
2023/08/15 02:17:12;;;;;;;3.38;1.98;;;22.10;99.90;;;;;;6240108;23;20031;-70
2023/08/15 02:19:58;;;;;;;3.75;2.05;;;22.10;99.90;;;;;;6240373;23;20565;-69
2023/08/15 02:22:44;;;;;;;3.40;1.75;;;22.10;99.90;;;;;;6241206;23;20059;-70
2023/08/15 02:25:30;;;;;;;2.83;1.70;;;22.10;99.90;;;;;;6240388;23;20058;-70
2023/08/15 02:28:16;;;;;;;2.55;1.60;;;22.00;99.90;;;;;;6240965;23;20446;-70
2023/08/15 02:31:05;;;;;;;2.30;1.55;;;22.00;99.90;;;;;;6241455;23;20012;-70
2023/08/15 02:33:51;;;;;;;3.58;1.88;;;22.00;99.90;;;;;;6237903;23;20040;-70
2023/08/15 02:36:37;;;;;;;3.47;2.20;;;22.00;99.90;;;;;;6241700;23;20009;-70
2023/08/15 02:39:22;;;;;;;3.65;2.13;;;21.90;99.90;;;;;;6240984;23;20023;-69
2023/08/15 02:42:08;;;;;;;4.45;2.22;;;21.90;99.90;;;;;;6240646;23;20020;-69
2023/08/15 02:44:55;;;;;;;3.20;2.20;;;21.90;99.90;;;;;;6220535;23;20012;-69
2023/08/15 02:47:40;;;;;;;2.80;2.00;;;21.90;99.90;;;;;;6244562;23;20015;-69
2023/08/15 02:50:27;;;;;;;3.70;1.98;;;21.90;99.90;;;;;;6241723;23;20094;-69
2023/08/15 02:53:13;;;;;;;4.53;2.45;;;21.90;99.90;;;;;;6249386;23;20441;-69
2023/08/15 02:55:59;;;;;;;3.72;2.22;;;21.90;99.90;;;;;;6241209;23;20323;-69
2023/08/15 02:58:45;;;;;;;3.45;2.40;;;21.80;99.90;;;;;;6239723;23;20490;-69
2023/08/15 03:01:32;;;;;;;4.35;2.30;;;21.80;99.90;;;;;;6239815;23;20024;-68
2023/08/15 03:04:18;;;;;;;3.13;2.17;;;21.80;99.90;;;;;;6238161;23;20024;-69
2023/08/15 03:07:04;;;;;;;3.58;2.03;;;21.80;99.90;;;;;;6240993;23;20018;-70
2023/08/15 03:09:50;;;;;;;2.33;1.90;;;21.80;99.90;;;;;;6240819;23;20066;-70
2023/08/15 03:12:36;;;;;;;4.50;1.95;;;21.80;99.90;;;;;;6218379;23;20016;-69
2023/08/15 03:15:22;;;;;;;3.08;2.13;;;21.70;99.90;;;;;;6239216;23;20012;-69
2023/08/15 03:18:08;;;;;;;3.95;2.13;;;21.70;99.90;;;;;;6240617;23;20015;-70
2023/08/15 03:21:03;;;;;;;2.95;1.85;;;21.70;99.90;;;;;;6242416;23;20087;-70
2023/08/15 03:23:49;;;;;;;3.58;2.10;;;21.70;99.90;;;;;;6240536;23;20013;-70
2023/08/15 03:26:35;;;;;;;3.85;2.38;;;21.70;99.90;;;;;;6243003;23;20012;-70
2023/08/15 03:29:21;;;;;;;4.07;2.30;;;21.70;99.90;;;;;;6240146;23;20005;-71
2023/08/15 03:32:07;;;;;;;4.60;2.13;;;21.60;99.90;;;;;;6242807;23;20050;-70
2023/08/15 03:34:53;;;;;;;4.18;2.10;;;21.60;99.90;;;;;;6242270;23;20016;-70
2023/08/15 03:37:39;;;;;;;2.67;2.15;;;21.60;99.90;;;;;;6241621;23;20022;-70
2023/08/15 03:40:25;;;;;;;4.05;2.45;;;21.60;99.90;;;;;;6242065;23;20012;-71
2023/08/15 03:43:11;;;;;;;3.80;2.70;;;21.50;99.90;;;;;;6241765;23;20024;-70
2023/08/15 03:45:58;;;;;;;5.53;2.63;;;21.50;99.90;;;;;;6242236;23;20004;-70
2023/08/15 03:48:44;;;;;;;3.22;2.20;;;21.60;99.90;;;;;;6239811;23;20019;-70
2023/08/15 03:51:30;;;;;;;5.00;3.08;;;21.50;99.90;;;;;;6240943;23;20508;-69
2023/08/15 03:54:16;;;;;;;3.70;2.50;;;21.50;99.90;;;;;;6242136;23;20023;-69
2023/08/15 03:57:02;;;;;;;7.55;2.95;;;21.50;99.90;;;;;;6241360;23;20036;-69
2023/08/15 03:59:48;;;;;;;4.63;3.10;;;21.50;99.90;;;;;;6241661;23;20515;-69
2023/08/15 04:02:34;;;;;;;3.38;2.67;;;21.50;99.90;;;;;;6241810;23;20031;-73
2023/08/15 04:05:20;;;;;;;4.03;2.92;;;21.50;99.90;;;;;;6241255;23;20016;-73
2023/08/15 04:08:06;;;;;;;4.30;2.78;;;21.40;99.90;;;;;;6241708;23;20008;-74
2023/08/15 04:10:52;;;;;;;4.32;2.90;;;21.40;99.90;;;;;;6241951;23;20406;-74
2023/08/15 04:13:39;;;;;;;5.35;3.58;;;21.40;99.90;;;;;;6239188;23;20050;-74
2023/08/15 04:16:25;;;;;;;5.30;3.00;;;21.50;99.90;;;;;;6242016;23;20397;-73
2023/08/15 04:19:11;;;;;;;5.03;3.38;;;21.50;99.90;;;;;;6238024;23;20014;-73
2023/08/15 04:21:57;;;;;;;8.50;4.15;;;21.40;99.90;;;;;;6240984;23;20024;-74
2023/08/15 04:24:43;;;;;;;4.80;3.20;;;21.40;99.90;;;;;;6239793;23;20117;-74
2023/08/15 04:27:28;;;;;;;5.97;4.00;;;21.50;99.90;;;;;;6220010;23;20107;-74
2023/08/15 04:30:14;;;;;;;6.47;3.92;;;21.40;99.90;;;;;;6240455;23;20095;-73
2023/08/15 04:33:01;;;;;;;5.57;4.00;;;21.50;99.90;;;;;;6241101;23;20012;-74
2023/08/15 04:35:47;;;;;;;6.45;4.55;;;21.40;99.90;;;;;;6240065;23;20513;-74
2023/08/15 04:38:33;;;;;;;6.88;4.35;;;21.50;99.90;;;;;;6240730;23;20008;-74
2023/08/15 04:41:18;;;;;;;9.30;4.78;;;21.50;99.90;;;;;;6241332;23;20074;-71
2023/08/15 04:44:05;;;;;;;5.70;4.30;;;21.50;99.90;;;;;;6241069;23;20020;-71
2023/08/15 04:46:51;;;;;;;6.70;4.82;;;21.50;99.90;;;;;;6241337;23;20337;-71
2023/08/15 04:49:38;;;;;;;6.72;4.25;;;21.50;99.90;;;;;;6240163;23;20357;-71
2023/08/15 04:52:25;;;;;;;6.30;4.38;;;21.60;99.90;;;;;;6241076;23;20012;-70
2023/08/15 04:55:13;;;;;;;8.10;4.60;;;21.50;99.90;;;;;;6241432;23;20008;-71
2023/08/15 04:57:58;;;;;;;6.43;4.45;;;21.60;99.90;;;;;;6238896;23;20008;-73
2023/08/15 05:00:44;;;;;;;7.00;4.45;;;21.60;99.90;;;;;;6242101;23;20093;-73
2023/08/15 05:03:30;;;;;;;7.00;4.13;;;21.60;99.90;;;;;;6240158;23;20020;-73
2023/08/15 05:06:16;;;;;;;9.90;4.47;;;21.60;99.90;;;;;;6240557;23;20446;-73
2023/08/15 05:09:02;;;;;;;7.53;4.53;;;21.60;99.90;;;;;;6241160;23;20099;-73
2023/08/15 05:11:48;;;;;;;5.75;3.97;;;21.70;99.90;;;;;;6241177;23;20023;-73
2023/08/15 05:14:34;;;;;;;7.80;5.18;;;21.70;99.90;;;;;;6241285;23;20012;-72
2023/08/15 05:17:20;;;;;;;5.32;4.03;;;21.70;99.90;;;;;;6240443;23;20016;-72
2023/08/15 05:20:07;;;;;;;6.05;4.28;;;21.70;99.90;;;;;;6240874;23;20008;-73
2023/08/15 05:22:53;;;;;;;6.88;3.95;;;21.70;99.90;;;;;;6219411;23;20055;-73
2023/08/15 05:25:41;;;;;;;5.07;3.75;;;21.70;99.90;;;;;;6242895;23;20042;-72
2023/08/15 05:28:27;;;;;;;7.28;3.97;;;21.80;99.90;;;;;;6217552;23;20100;-75
2023/08/15 05:31:14;;;;;;;5.78;3.95;;;21.80;99.90;;;;;;6240763;23;20000;-76
2023/08/15 05:34:00;;;;;;;8.68;4.30;;;21.80;99.90;;;;;;6241206;23;20011;-75
2023/08/15 05:36:46;;;;;;;7.18;4.38;;;21.80;99.90;;;;;;6239759;23;20473;-70
2023/08/15 05:39:32;;;;;;;6.28;4.07;;;21.80;99.90;;;;;;6238876;23;20456;-70
2023/08/15 05:42:18;;;;;;;5.60;3.80;;;21.90;99.90;;;;;;6238947;23;20055;-68
2023/08/15 05:45:04;;;;;;;6.00;3.88;;;21.90;99.90;;;;;;6239892;23;20738;-69
2023/08/15 05:47:50;;;;;;;6.57;4.10;;;21.90;99.90;;;;;;6241268;23;20016;-71
2023/08/15 05:50:37;;;;;;;5.45;3.80;;;22.00;99.90;;;;;;6239026;23;20004;-70
2023/08/15 05:53:23;;;;;;;8.15;3.65;;;22.00;99.90;;;;;;6238941;23;20334;-70
2023/08/15 05:56:09;;;;;;;5.38;3.90;;;22.00;99.90;;;;;;6241564;23;20004;-72
2023/08/15 05:58:55;;;;;;;5.03;3.33;;;22.10;99.90;;;;;;6240884;23;20012;-71
2023/08/15 06:01:41;;;;;;;8.35;4.70;;;22.10;99.90;;;;;;6239617;23;20569;-74
2023/08/15 06:04:26;;;;;;;4.95;3.70;;;22.10;99.90;;;;;;6239628;23;20781;-71
2023/08/15 06:07:12;;;;;;;4.75;3.63;;;22.20;99.90;;;;;;6218116;23;20048;-72
2023/08/15 06:09:58;;;;;;;4.47;3.20;;;22.20;99.90;;;;;;6218755;23;20091;-72
2023/08/15 06:12:44;;;;;;;4.95;3.10;;;22.20;99.90;;;;;;6239902;23;20357;-72
2023/08/15 06:15:30;;;;;;;5.25;3.72;;;22.30;99.90;;;;;;6240113;23;20008;-72
2023/08/15 06:18:16;;;;;;;6.03;4.28;;;22.30;99.90;;;;;;6240998;23;20099;-72
2023/08/15 06:21:02;;;;;;;5.50;3.67;;;22.30;99.90;;;;;;6240317;23;20001;-72
2023/08/15 06:23:48;;;;;;;6.70;3.72;;;22.40;99.90;;;;;;6217418;23;20476;-71
2023/08/15 06:26:35;;;;;;;6.15;3.78;;;22.40;99.90;;;;;;6238466;23;20016;-72
2023/08/15 06:29:21;;;;;;;6.00;3.35;;;22.40;99.90;;;;;;6237840;23;20031;-72
2023/08/15 06:32:07;;;;;;;5.55;3.70;;;22.50;99.90;;;;;;6239491;23;20032;-76
2023/08/15 06:34:53;;;;;;;6.80;3.78;;;22.50;99.90;;;;;;6239635;23;20012;-71
2023/08/15 06:37:39;;;;;;;7.28;3.53;;;22.60;99.90;;;;;;6239960;23;20016;-70
2023/08/15 06:40:25;;;;;;;4.60;3.13;;;22.60;99.90;;;;;;6240410;23;20089;-71
2023/08/15 06:43:11;;;;;;;5.82;3.65;;;22.70;99.90;;;;;;6239363;23;20446;-71
2023/08/15 06:45:57;;;;;;;4.43;3.20;;;22.70;99.90;;;;;;6240452;23;20004;-71
2023/08/15 06:48:43;;;;;;;5.82;3.78;;;22.80;99.90;;;;;;6239752;23;20038;-72
2023/08/15 06:51:29;;;;;;;4.72;3.22;;;22.70;99.90;;;;;;6238754;23;20014;-73
2023/08/15 06:54:15;;;;;;;4.18;3.15;;;22.80;99.90;;;;;;6240265;23;20008;-73
2023/08/15 06:57:01;;;;;;;4.75;3.42;;;22.80;99.90;;;;;;6220637;23;20008;-71
2023/08/15 06:59:46;;;;;;;5.13;3.90;;;22.90;99.90;;;;;;6240317;23;20016;-72
2023/08/15 07:02:32;;;;;;;4.68;3.60;;;22.90;99.90;;;;;;6242227;23;20123;-71
2023/08/15 07:05:18;;;;;;;8.18;3.92;;;23.00;99.90;;;;;;6241101;23;20036;-71
2023/08/15 07:08:05;;;;;;;6.18;3.70;;;23.10;99.90;;;;;;6241301;23;20027;-71
2023/08/15 07:10:55;;;;;;;8.50;4.20;;;23.10;99.90;;;;;;6239636;23;20004;-71
2023/08/15 07:13:41;;;;;;;4.80;3.58;;;23.20;99.90;;;;;;6239926;23;20007;-72
2023/08/15 07:16:27;;;;;;;5.65;3.85;;;23.30;99.90;;;;;;6240156;23;20004;-70
2023/08/15 07:19:13;;;;;;;4.82;3.20;;;23.30;99.90;;;;;;6240978;23;20016;-71
2023/08/15 07:21:58;;;;;;;5.40;3.42;;;23.40;99.90;;;;;;6242135;23;20027;-70
2023/08/15 07:24:45;;;;;;;4.75;3.42;;;23.40;99.90;;;;;;6242399;23;20109;-70
2023/08/15 07:27:31;;;;;;;3.67;2.83;;;23.50;99.90;;;;;;6239067;23;20046;-71
2023/08/15 07:30:17;;;;;;;4.50;3.22;;;23.50;99.90;;;;;;6240311;23;20449;-70
2023/08/15 07:33:03;;;;;;;5.03;2.90;;;23.60;99.90;;;;;;6240757;23;20043;-71
2023/08/15 07:35:49;;;;;;;5.15;3.42;;;23.70;99.90;;;;;;6236622;23;20019;-70
2023/08/15 07:38:35;;;;;;;4.75;2.70;;;23.70;99.90;;;;;;6240785;23;20091;-71
2023/08/15 07:41:21;;;;;;;4.30;3.47;;;23.80;99.90;;;;;;6240668;23;20005;-70
2023/08/15 07:44:07;;;;;;;5.97;3.17;;;23.90;99.90;;;;;;6241078;23;20373;-71
2023/08/15 07:46:53;;;;;;;7.32;3.58;;;24.00;99.90;;;;;;6240545;23;20004;-71
2023/08/15 07:49:39;;;;;;;5.00;3.08;;;24.00;99.90;;;;;;6240957;23;20011;-71
2023/08/15 07:52:25;;;;;;;6.13;3.65;;;24.10;99.90;;;;;;6241278;23;20032;-72
2023/08/15 07:55:12;;;;;;;5.82;3.88;;;24.20;99.90;;;;;;6241137;23;20040;-70
2023/08/15 07:57:58;;;;;;;7.68;4.03;;;24.20;99.90;;;;;;6217502;23;20070;-70
2023/08/15 08:00:44;;;;;;;7.32;3.83;;;24.30;99.90;;;;;;6241280;23;20043;-69
2023/08/15 08:03:30;;;;;;;10.95;5.40;;;24.40;99.90;;;;;;6240873;23;20034;-69
2023/08/15 08:06:16;;;;;;;10.07;5.28;;;24.50;99.90;;;;;;6241779;23;20094;-70
2023/08/15 08:09:05;;;;;;;5.72;3.67;;;24.50;99.90;;;;;;6241049;23;20509;-70
2023/08/15 08:11:52;;;;;;;7.22;3.90;;;24.60;99.90;;;;;;6240319;23;20062;-70
2023/08/15 08:14:38;;;;;;;4.82;3.47;;;24.60;99.90;;;;;;6238874;23;20492;-70
2023/08/15 08:17:24;;;;;;;5.13;3.50;;;24.70;99.90;;;;;;6240954;23;20001;-68
2023/08/15 08:20:13;;;;;;;6.82;4.22;;;24.70;99.90;;;;;;6240538;23;20014;-70
2023/08/15 08:22:59;;;;;;;7.05;4.45;;;24.80;99.90;;;;;;6239603;23;20066;-70
2023/08/15 08:25:45;;;;;;;7.25;4.30;;;24.90;99.90;;;;;;6242522;23;20008;-70
2023/08/15 08:28:31;;;;;;;13.35;4.75;;;24.90;99.90;;;;;;6240790;23;20012;-70
2023/08/15 08:31:17;;;;;;;5.97;4.18;;;25.00;99.90;;;;;;6241136;23;20012;-70
2023/08/15 08:34:03;;;;;;;7.60;4.97;;;25.10;99.90;;;;;;6238812;23;20050;-70
2023/08/15 08:36:49;;;;;;;5.93;4.15;;;25.10;99.90;;;;;;6239267;23;20396;-70
2023/08/15 08:39:36;;;;;;;8.77;4.45;;;25.20;99.90;;;;;;6238367;23;20718;-70
2023/08/15 08:42:22;;;;;;;6.72;4.10;;;25.30;99.90;;;;;;6240774;23;20412;-70
2023/08/15 08:45:10;;;;;;;6.93;4.57;;;25.30;99.90;;;;;;6240842;23;20035;-71
2023/08/15 08:47:56;;;;;;;14.20;4.85;;;25.40;99.90;;;;;;6218923;23;20091;-72
2023/08/15 08:50:44;;;;;;;6.43;4.70;;;25.50;99.90;;;;;;6238707;23;20354;-73
2023/08/15 08:53:30;;;;;;;5.00;3.90;;;25.60;99.90;;;;;;6241418;23;20023;-72
2023/08/15 08:56:22;;;;;;;5.15;4.25;;;25.60;99.90;;;;;;6241194;23;20015;-71
2023/08/15 08:59:11;;;;;;;5.20;3.83;;;25.70;99.90;;;;;;6239864;23;20381;-71
2023/08/15 09:01:57;;;;;;;6.78;4.03;;;25.80;99.90;;;;;;6240025;23;20457;-71
2023/08/15 09:04:43;;;;;;;6.78;4.47;;;25.80;99.90;;;;;;6238584;23;20055;-71
2023/08/15 09:07:33;;;;;;;7.40;5.38;;;25.90;99.90;;;;;;6239454;23;20012;-71
2023/08/15 09:10:21;;;;;;;6.07;4.22;;;25.90;99.90;;;;;;6238486;23;20012;-70
2023/08/15 09:13:07;;;;;;;6.10;5.25;;;26.10;99.90;;;;;;6237355;23;20524;-71
2023/08/15 09:15:56;;;;;;;5.97;4.60;;;26.10;99.90;;;;;;6238783;23;20012;-71
2023/08/15 09:18:43;;;;;;;8.63;5.10;;;26.20;99.90;;;;;;6237882;23;20015;-71
2023/08/15 09:21:29;;;;;;;6.18;4.72;;;26.20;99.90;;;;;;6241416;23;20123;-71
2023/08/15 09:24:15;;;;;;;6.18;4.43;;;26.40;99.90;;;;;;6216173;23;20091;-72
2023/08/15 09:27:06;;;;;;;5.40;4.05;;;26.50;99.90;;;;;;6239681;23;20397;-71
2023/08/15 09:29:51;;;;;;;8.85;5.07;;;26.70;99.90;;;;;;6240393;23;20012;-70
2023/08/15 09:32:42;;;;;;;5.28;4.38;;;26.90;99.90;;;;;;6240989;23;20012;-70
2023/08/15 09:35:30;;;;;;;6.68;4.50;;;26.90;99.90;;;;;;6238627;23;20019;-72
2023/08/15 09:38:17;;;;;;;5.93;4.80;;;27.20;99.90;;;;;;6237419;23;20016;-70
2023/08/15 09:41:03;;;;;;;6.35;4.78;;;27.40;99.90;;;;;;6239362;23;20157;-71
2023/08/15 09:43:52;;;;;;;8.55;4.65;;;27.50;99.90;;;;;;6216211;23;20031;-69
2023/08/15 09:46:39;;;;;;;6.60;4.57;;;27.60;99.90;;;;;;6239603;23;20346;-70
2023/08/15 09:49:29;;;;;;;11.00;4.72;;;27.80;99.90;;;;;;6238488;23;20020;-68
2023/08/15 09:52:16;;;;;;;6.22;4.47;;;27.90;99.90;;;;;;6217489;23;20312;-71
2023/08/15 09:55:02;;;;;;;8.38;5.00;;;28.00;99.90;;;;;;6233318;23;20019;-70
2023/08/15 09:57:50;;;;;;;10.00;5.00;;;28.10;99.90;;;;;;6231768;23;20008;-69
2023/08/15 10:00:37;;;;;;;8.90;4.85;;;28.20;99.90;;;;;;6211300;23;20012;-71
2023/08/15 10:03:34;;;;;;;5.93;4.68;;;28.20;99.90;;;;;;6232696;23;20058;-72
2023/08/15 10:06:21;;;;;;;7.32;5.25;;;28.30;99.90;;;;;;6231731;23;20012;-72
2023/08/15 10:09:09;;;;;;;8.77;5.65;;;28.40;99.90;;;;;;6236416;23;20400;-72
2023/08/15 10:11:57;;;;;;;7.30;5.25;;;28.40;99.90;;;;;;6240294;23;20012;-71
2023/08/15 10:14:44;;;;;;;5.80;4.50;;;28.50;99.90;;;;;;6232279;23;20016;-71
2023/08/15 10:17:30;;;;;;;8.93;5.97;;;28.50;99.90;;;;;;6231471;23;20043;-69
2023/08/15 10:20:21;;;;;;;5.85;4.68;;;28.60;99.90;;;;;;6233192;23;20016;-71
2023/08/15 10:23:10;;;;;;;6.55;5.53;;;28.70;99.90;;;;;;6233173;23;20057;-71
2023/08/15 10:25:58;;;;;;;6.38;4.60;;;28.70;99.90;;;;;;6230863;23;20039;-71
2023/08/15 10:28:46;;;;;;;6.57;4.97;;;28.70;99.90;;;;;;6232100;23;20012;-71
2023/08/15 10:31:39;;;;;;;8.65;4.88;;;28.80;99.90;;;;;;6230779;23;20579;-71
2023/08/15 10:34:32;;;;;;;7.40;5.30;;;28.90;99.90;;;;;;6231496;23;20586;-71
2023/08/15 10:37:36;;;;;;;6.85;5.03;;;28.80;99.90;;;;;;6231152;23;20080;-71
2023/08/15 10:40:38;;;;;;;8.23;4.75;;;28.90;99.90;;;;;;6231137;23;20012;-72
2023/08/15 10:43:25;;;;;;;6.25;4.80;;;28.90;99.90;;;;;;6231060;23;20446;-75
2023/08/15 10:46:11;;;;;;;5.68;4.78;;;29.00;99.90;;;;;;6236301;22;20016;-72
2023/08/15 10:49:07;;;;;;;7.32;6.10;;;29.00;99.90;;;;;;6239791;23;20345;-68
2023/08/15 10:51:57;;;;;;;6.82;4.40;;;29.00;99.90;;;;;;6232222;23;20501;-74
2023/08/15 10:54:43;;;;;;;6.32;4.70;;;28.90;99.70;;;;;;6233277;23;20012;-75
2023/08/15 10:57:32;;;;;;;9.88;4.70;;;29.00;99.90;;;;;;6232626;23;20450;-75
2023/08/15 11:00:21;;;;;;;6.03;4.53;;;29.00;99.90;;;;;;6216036;23;20008;-80
2023/08/15 11:03:07;;;;;;;5.93;5.05;;;29.10;99.90;;;;;;6213565;23;20020;-80
2023/08/15 11:06:05;;;;;;;5.53;4.57;;;29.20;99.90;;;;;;6235393;23;20077;-78
2023/08/15 11:08:58;;;;;;;7.57;5.35;;;29.20;99.90;;;;;;6213906;23;20040;-81
2023/08/15 11:11:45;;;;;;;7.03;5.03;;;29.20;99.90;;;;;;6216819;23;20019;-78
2023/08/15 11:14:32;;;;;;;6.50;5.45;;;29.20;99.70;;;;;;6234282;23;20577;-77
2023/08/15 11:17:18;;;;;;;6.85;5.20;;;29.20;99.40;;;;;;6211087;23;20019;-74
2023/08/15 11:20:05;;;;;;;10.65;5.38;;;29.10;99.40;;;;;;6233991;23;20020;-74
2023/08/15 11:22:58;;;;;;;6.72;4.72;;;29.10;99.40;;;;;;6230992;23;20028;-74
2023/08/15 11:25:43;;;;;;;9.20;5.15;;;29.20;99.60;;;;;;6211502;23;20019;-75
2023/08/15 11:28:30;;;;;;;8.18;6.25;;;29.20;99.70;;;;;;6232720;23;20012;-73
2023/08/15 11:31:16;;;;;;;6.55;5.10;;;29.20;99.40;;;;;;6234354;23;20015;-73
2023/08/15 11:34:03;;;;;;;6.13;5.53;;;29.30;99.40;;;;;;6231535;23;20022;-74
2023/08/15 11:36:49;;;;;;;8.88;5.40;;;29.30;99.40;;;;;;6234737;23;20012;-75
2023/08/15 11:39:35;;;;;;;5.50;4.70;;;29.30;99.40;;;;;;6211367;23;20417;-73
2023/08/15 11:42:22;;;;;;;8.10;5.30;;;29.30;98.90;;;;;;6233989;23;20024;-75
2023/08/15 11:45:18;;;;;;;6.07;5.00;;;29.30;98.80;;;;;;6214127;23;20004;-73
2023/08/15 11:48:05;;;;;;;6.78;5.05;;;29.40;98.50;;;;;;6233315;23;20094;-73
2023/08/15 11:50:51;;;;;;;6.43;4.60;;;29.40;98.40;;;;;;6232480;23;20506;-73
2023/08/15 11:53:47;;;;;;;8.05;4.68;;;29.40;98.60;;;;;;6213015;23;20031;-75
2023/08/15 11:56:50;;;;;;;6.78;4.32;;;29.50;98.50;;;;;;6232878;23;20016;-74
2023/08/15 11:59:37;;;;;;;4.78;3.95;;;29.50;98.30;;;;;;6211853;23;20022;-74
2023/08/15 12:02:23;;;;;;;5.90;4.38;;;29.50;98.00;;;;;;6233991;23;20343;-73
2023/08/15 12:05:18;;;;;;;5.95;4.38;;;29.50;97.80;;;;;;6213508;23;20424;-74
2023/08/15 12:08:04;;;;;;;5.60;4.65;;;29.50;97.70;;;;;;6233154;23;20398;-73
2023/08/15 12:10:56;;;;;;;5.57;3.90;;;29.50;97.70;;;;;;6233667;23;20023;-74
2023/08/15 12:13:42;;;;;;;4.68;3.67;;;29.60;97.40;;;;;;6212909;23;20421;-73
2023/08/15 12:16:28;;;;;;;5.55;3.53;;;29.60;97.20;;;;;;6235273;23;20187;-73
2023/08/15 12:19:14;;;;;;;6.50;4.18;;;29.60;97.10;;;;;;6234512;23;20016;-73
2023/08/15 12:22:00;;;;;;;6.72;4.55;;;29.70;96.90;;;;;;6233721;23;20027;-73
2023/08/15 12:24:46;;;;;;;8.25;3.67;;;29.70;96.80;;;;;;6234404;23;20022;-72
2023/08/15 12:27:32;;;;;;;7.53;4.10;;;29.80;96.80;;;;;;6211895;23;20036;-73
2023/08/15 12:30:20;;;;;;;9.13;3.90;;;29.90;96.80;;;;;;6234494;23;20015;-74
2023/08/15 12:33:05;;;;;;;5.75;4.50;;;30.00;96.70;;;;;;6232446;23;20027;-72
2023/08/15 12:35:51;;;;;;;6.10;4.15;;;30.00;96.50;;;;;;6233608;23;20008;-73
2023/08/15 12:38:37;;;;;;;5.88;4.75;;;30.10;96.50;;;;;;6235333;23;20012;-73
2023/08/15 12:41:23;;;;;;;6.85;4.40;;;30.10;96.30;;;;;;6234759;23;20004;-73
2023/08/15 12:44:09;;;;;;;7.13;4.68;;;30.20;96.50;;;;;;6234136;23;20008;-73
2023/08/15 12:46:55;;;;;;;9.55;4.60;;;30.20;96.70;;;;;;6233024;23;20008;-73
2023/08/15 12:49:41;;;;;;;5.95;4.63;;;30.20;96.80;;;;;;6233978;23;20016;-73
2023/08/15 12:52:27;;;;;;;8.45;4.10;;;30.30;96.60;;;;;;6233338;23;20007;-72
2023/08/15 12:55:13;;;;;;;6.35;4.40;;;30.40;96.60;;;;;;6233629;23;20464;-73
2023/08/15 12:58:00;;;;;;;5.70;4.00;;;30.50;96.20;;;;;;6233688;23;20012;-73
2023/08/15 13:00:48;;;;;;;7.05;4.35;;;30.50;96.40;;;;;;6233436;23;20042;-72
2023/08/15 13:03:34;;;;;;;5.20;4.07;;;30.60;96.50;;;;;;6233322;23;20086;-73
2023/08/15 13:06:20;;;;;;;5.00;3.83;;;30.70;96.50;;;;;;6233154;23;20476;-68
2023/08/15 13:09:07;;;;;;;7.43;4.47;;;30.70;96.10;;;;;;6233473;23;20015;-70
2023/08/15 13:11:53;;;;;;;7.05;4.93;;;30.90;95.50;;;;;;6231681;23;20823;-73
2023/08/15 13:14:39;;;;;;;4.55;4.10;;;30.90;95.60;;;;;;6233659;23;20532;-73
2023/08/15 13:17:25;;;;;;;6.72;4.07;;;31.00;95.50;;;;;;6234392;23;20012;-73
2023/08/15 13:20:11;;;;;;;5.43;4.40;;;31.00;95.30;;;;;;6234038;23;20012;-74
2023/08/15 13:22:57;;;;;;;6.68;4.07;;;31.20;95.10;;;;;;6231762;23;20020;-72
2023/08/15 13:25:45;;;;;;;7.00;4.03;;;31.20;95.20;;;;;;6233642;23;20331;-72
2023/08/15 13:28:30;;;;;;;5.55;4.18;;;31.30;94.80;;;;;;6212230;23;20056;-73
2023/08/15 13:31:16;;;;;;;5.22;3.90;;;31.30;94.30;;;;;;6217027;23;20085;-73
2023/08/15 13:34:03;;;;;;;7.25;4.60;;;31.40;94.10;;;;;;6235452;23;20004;-72
2023/08/15 13:36:49;;;;;;;5.88;4.00;;;31.50;93.70;;;;;;6234802;23;20012;-72
2023/08/15 13:39:35;;;;;;;15.45;3.70;;;31.60;93.90;;;;;;6234080;23;20022;-72
2023/08/15 13:42:20;;;;;;;4.38;3.60;;;31.70;93.60;;;;;;6234073;23;20452;-72
2023/08/15 13:45:07;;;;;;;4.78;3.88;;;31.80;93.20;;;;;;6233918;23;20453;-73
2023/08/15 13:47:53;;;;;;;6.07;3.53;;;31.80;93.10;;;;;;6212523;23;20019;-72
2023/08/15 13:50:39;;;;;;;6.55;3.75;;;31.90;92.80;;;;;;6233504;23;20012;-72
2023/08/15 13:53:25;;;;;;;4.93;3.60;;;32.00;92.90;;;;;;6234509;23;20537;-73
2023/08/15 13:56:12;;;;;;;7.47;4.00;;;32.10;92.60;;;;;;6232971;23;20420;-73
2023/08/15 13:58:58;;;;;;;4.70;3.40;;;32.10;92.70;;;;;;6233933;23;20348;-73
2023/08/15 14:01:44;;;;;;;4.85;3.63;;;32.10;92.20;;;;;;6233639;23;20424;-72
2023/08/15 14:04:31;;;;;;;4.90;3.42;;;32.20;92.00;;;;;;6232991;23;20030;-72
2023/08/15 14:07:17;;;;;;;7.78;3.33;;;32.20;91.80;;;;;;6231532;23;20062;-72
2023/08/15 14:10:03;;;;;;;4.03;2.75;;;32.20;91.40;;;;;;6233747;23;20064;-73
2023/08/15 14:12:49;;;;;;;4.45;3.00;;;32.30;91.30;;;;;;6232463;23;20039;-72
2023/08/15 14:15:36;;;;;;;5.05;3.50;;;32.30;91.10;;;;;;6233682;23;20081;-75
2023/08/15 14:18:22;;;;;;;8.38;3.95;;;32.40;91.00;;;;;;6232449;23;20039;-74
2023/08/15 14:21:10;;;;;;;4.45;3.00;;;32.40;91.00;;;;;;6231818;23;20008;-74
2023/08/15 14:23:56;;;;;;;4.35;3.45;;;32.40;90.90;;;;;;6231944;23;20095;-71
2023/08/15 14:26:42;;;;;;;4.35;3.53;;;32.50;90.70;;;;;;6232655;23;20126;-73